sensor_id;sensor_type;location;lat;lon;timestamp;temperature;humidity
7325;DHT22;3703;48.016;7.802;2023-07-29T00:01:59;21.60;1.00
7325;DHT22;3703;48.016;7.802;2023-07-29T00:04:26;21.60;1.00
7325;DHT22;3703;48.016;7.802;2023-07-29T00:06:53;21.60;1.00
7325;DHT22;3703;48.016;7.802;2023-07-29T00:09:20;21.70;1.00
7325;DHT22;3703;48.016;7.802;2023-07-29T00:11:49;21.60;1.00
7325;DHT22;3703;48.016;7.802;2023-07-29T00:14:16;21.70;1.00
7325;DHT22;3703;48.016;7.802;2023-07-29T00:16:43;21.80;1.00
7325;DHT22;3703;48.016;7.802;2023-07-29T00:19:10;21.60;1.00
7325;DHT22;3703;48.016;7.802;2023-07-29T00:21:37;21.60;1.00
7325;DHT22;3703;48.016;7.802;2023-07-29T00:24:05;21.70;1.00
7325;DHT22;3703;48.016;7.802;2023-07-29T00:26:32;21.70;1.00
7325;DHT22;3703;48.016;7.802;2023-07-29T00:29:01;21.70;1.00
7325;DHT22;3703;48.016;7.802;2023-07-29T00:31:28;21.80;1.00
7325;DHT22;3703;48.016;7.802;2023-07-29T00:33:55;21.70;1.00
7325;DHT22;3703;48.016;7.802;2023-07-29T00:36:23;21.60;1.00
7325;DHT22;3703;48.016;7.802;2023-07-29T00:38:51;21.60;1.00
7325;DHT22;3703;48.016;7.802;2023-07-29T00:41:18;21.70;1.00
7325;DHT22;3703;48.016;7.802;2023-07-29T00:43:46;21.60;1.00
7325;DHT22;3703;48.016;7.802;2023-07-29T00:46:15;21.60;1.00
7325;DHT22;3703;48.016;7.802;2023-07-29T00:48:43;20.60;1.00
7325;DHT22;3703;48.016;7.802;2023-07-29T00:51:10;21.60;1.00
7325;DHT22;3703;48.016;7.802;2023-07-29T00:53:37;21.60;1.00
7325;DHT22;3703;48.016;7.802;2023-07-29T00:56:04;21.60;1.00
7325;DHT22;3703;48.016;7.802;2023-07-29T00:58:31;21.70;1.00
7325;DHT22;3703;48.016;7.802;2023-07-29T01:00:59;21.60;1.00
7325;DHT22;3703;48.016;7.802;2023-07-29T01:03:27;21.40;1.00
7325;DHT22;3703;48.016;7.802;2023-07-29T01:06:01;21.50;1.00
7325;DHT22;3703;48.016;7.802;2023-07-29T01:08:42;21.60;1.00
7325;DHT22;3703;48.016;7.802;2023-07-29T01:11:24;21.60;1.00
7325;DHT22;3703;48.016;7.802;2023-07-29T01:14:04;21.60;1.00
7325;DHT22;3703;48.016;7.802;2023-07-29T01:16:39;21.60;1.00
7325;DHT22;3703;48.016;7.802;2023-07-29T01:19:34;21.70;1.00
7325;DHT22;3703;48.016;7.802;2023-07-29T01:22:11;21.50;1.00
7325;DHT22;3703;48.016;7.802;2023-07-29T01:24:39;21.70;1.00
7325;DHT22;3703;48.016;7.802;2023-07-29T01:27:07;21.70;1.00
7325;DHT22;3703;48.016;7.802;2023-07-29T01:29:53;21.60;1.00
7325;DHT22;3703;48.016;7.802;2023-07-29T01:32:43;21.50;1.00
7325;DHT22;3703;48.016;7.802;2023-07-29T01:35:18;21.50;1.00
7325;DHT22;3703;48.016;7.802;2023-07-29T01:37:52;21.40;1.00
7325;DHT22;3703;48.016;7.802;2023-07-29T01:40:42;21.60;1.00
7325;DHT22;3703;48.016;7.802;2023-07-29T01:43:29;21.20;1.00
7325;DHT22;3703;48.016;7.802;2023-07-29T01:46:15;21.40;1.00
7325;DHT22;3703;48.016;7.802;2023-07-29T01:49:00;21.40;1.00
7325;DHT22;3703;48.016;7.802;2023-07-29T01:51:46;21.40;1.00
7325;DHT22;3703;48.016;7.802;2023-07-29T01:54:32;21.40;1.00
7325;DHT22;3703;48.016;7.802;2023-07-29T01:57:19;21.30;1.00
7325;DHT22;3703;48.016;7.802;2023-07-29T02:00:06;21.30;1.00
7325;DHT22;3703;48.016;7.802;2023-07-29T02:02:53;21.10;1.00
7325;DHT22;3703;48.016;7.802;2023-07-29T02:05:38;21.30;1.00
7325;DHT22;3703;48.016;7.802;2023-07-29T02:08:24;21.30;1.00
7325;DHT22;3703;48.016;7.802;2023-07-29T02:11:09;20.60;1.00
7325;DHT22;3703;48.016;7.802;2023-07-29T02:13:56;21.00;1.00
7325;DHT22;3703;48.016;7.802;2023-07-29T02:16:42;21.20;1.00
7325;DHT22;3703;48.016;7.802;2023-07-29T02:19:28;21.20;1.00
7325;DHT22;3703;48.016;7.802;2023-07-29T02:22:15;20.90;1.00
7325;DHT22;3703;48.016;7.802;2023-07-29T02:25:02;20.70;12.60
7325;DHT22;3703;48.016;7.802;2023-07-29T02:27:48;20.70;2.40
7325;DHT22;3703;48.016;7.802;2023-07-29T02:30:35;20.40;24.60
7325;DHT22;3703;48.016;7.802;2023-07-29T02:33:21;20.40;20.40
7325;DHT22;3703;48.016;7.802;2023-07-29T02:36:08;20.30;20.80
7325;DHT22;3703;48.016;7.802;2023-07-29T02:38:53;20.10;26.30
7325;DHT22;3703;48.016;7.802;2023-07-29T02:41:39;19.90;41.50
7325;DHT22;3703;48.016;7.802;2023-07-29T02:44:25;19.90;47.80
7325;DHT22;3703;48.016;7.802;2023-07-29T02:47:12;20.00;39.80
7325;DHT22;3703;48.016;7.802;2023-07-29T02:49:58;20.10;32.40
7325;DHT22;3703;48.016;7.802;2023-07-29T02:52:43;20.10;32.60
7325;DHT22;3703;48.016;7.802;2023-07-29T02:55:29;20.40;23.10
7325;DHT22;3703;48.016;7.802;2023-07-29T02:57:56;20.70;9.50
7325;DHT22;3703;48.016;7.802;2023-07-29T03:00:23;20.60;13.10
7325;DHT22;3703;48.016;7.802;2023-07-29T03:02:51;20.70;9.10
7325;DHT22;3703;48.016;7.802;2023-07-29T03:05:19;20.80;4.80
7325;DHT22;3703;48.016;7.802;2023-07-29T03:07:46;20.80;5.40
7325;DHT22;3703;48.016;7.802;2023-07-29T03:10:13;21.10;1.00
7325;DHT22;3703;48.016;7.802;2023-07-29T03:12:40;21.00;1.00
7325;DHT22;3703;48.016;7.802;2023-07-29T03:15:08;21.00;1.00
7325;DHT22;3703;48.016;7.802;2023-07-29T03:17:35;20.90;1.00
7325;DHT22;3703;48.016;7.802;2023-07-29T03:20:05;20.90;1.00
7325;DHT22;3703;48.016;7.802;2023-07-29T03:22:33;20.80;1.00
7325;DHT22;3703;48.016;7.802;2023-07-29T03:25:00;20.60;10.40
7325;DHT22;3703;48.016;7.802;2023-07-29T03:27:27;20.50;13.70
7325;DHT22;3703;48.016;7.802;2023-07-29T03:29:54;20.70;7.40
7325;DHT22;3703;48.016;7.802;2023-07-29T03:32:21;20.60;8.60
7325;DHT22;3703;48.016;7.802;2023-07-29T03:34:48;21.00;1.00
7325;DHT22;3703;48.016;7.802;2023-07-29T03:37:17;21.10;1.00
7325;DHT22;3703;48.016;7.802;2023-07-29T03:39:44;21.40;1.00
7325;DHT22;3703;48.016;7.802;2023-07-29T03:42:11;21.10;1.00
7325;DHT22;3703;48.016;7.802;2023-07-29T03:44:38;20.90;1.00
7325;DHT22;3703;48.016;7.802;2023-07-29T03:47:06;20.80;3.40
7325;DHT22;3703;48.016;7.802;2023-07-29T03:49:33;20.90;1.00
7325;DHT22;3703;48.016;7.802;2023-07-29T03:52:00;21.10;1.00
7325;DHT22;3703;48.016;7.802;2023-07-29T03:54:29;21.30;1.00
7325;DHT22;3703;48.016;7.802;2023-07-29T03:56:56;21.20;1.00
7325;DHT22;3703;48.016;7.802;2023-07-29T03:59:23;21.30;1.00
7325;DHT22;3703;48.016;7.802;2023-07-29T04:01:50;21.60;1.00
7325;DHT22;3703;48.016;7.802;2023-07-29T04:04:17;21.70;1.00
7325;DHT22;3703;48.016;7.802;2023-07-29T04:06:44;21.80;1.00
7325;DHT22;3703;48.016;7.802;2023-07-29T04:09:11;21.80;1.00
7325;DHT22;3703;48.016;7.802;2023-07-29T04:11:40;21.90;1.00
7325;DHT22;3703;48.016;7.802;2023-07-29T04:14:07;21.90;1.00
7325;DHT22;3703;48.016;7.802;2023-07-29T04:16:34;22.00;1.00
7325;DHT22;3703;48.016;7.802;2023-07-29T04:19:01;21.60;1.00
7325;DHT22;3703;48.016;7.802;2023-07-29T04:21:28;21.40;1.00
7325;DHT22;3703;48.016;7.802;2023-07-29T04:23:56;21.20;1.00
7325;DHT22;3703;48.016;7.802;2023-07-29T04:26:23;21.20;1.00
7325;DHT22;3703;48.016;7.802;2023-07-29T04:28:51;20.90;1.20
7325;DHT22;3703;48.016;7.802;2023-07-29T04:31:18;20.70;13.40
7325;DHT22;3703;48.016;7.802;2023-07-29T04:33:45;20.80;15.50
7325;DHT22;3703;48.016;7.802;2023-07-29T04:36:31;20.80;14.50
7325;DHT22;3703;48.016;7.802;2023-07-29T04:39:16;21.00;1.50
7325;DHT22;3703;48.016;7.802;2023-07-29T04:41:44;21.10;2.50
7325;DHT22;3703;48.016;7.802;2023-07-29T04:44:12;21.30;1.00
7325;DHT22;3703;48.016;7.802;2023-07-29T04:46:39;21.40;1.00
7325;DHT22;3703;48.016;7.802;2023-07-29T04:49:06;21.60;1.00
7325;DHT22;3703;48.016;7.802;2023-07-29T04:51:34;21.80;1.00
7325;DHT22;3703;48.016;7.802;2023-07-29T04:54:02;21.80;1.00
7325;DHT22;3703;48.016;7.802;2023-07-29T04:56:30;22.00;1.00
7325;DHT22;3703;48.016;7.802;2023-07-29T04:58:57;22.00;1.00
7325;DHT22;3703;48.016;7.802;2023-07-29T05:01:25;21.60;1.00
7325;DHT22;3703;48.016;7.802;2023-07-29T05:03:52;21.80;1.00
7325;DHT22;3703;48.016;7.802;2023-07-29T05:06:19;21.50;1.00
7325;DHT22;3703;48.016;7.802;2023-07-29T05:08:46;21.30;1.00
7325;DHT22;3703;48.016;7.802;2023-07-29T05:11:13;21.20;9.50
7325;DHT22;3703;48.016;7.802;2023-07-29T05:13:41;21.00;13.20
7325;DHT22;3703;48.016;7.802;2023-07-29T05:16:09;21.10;12.70
7325;DHT22;3703;48.016;7.802;2023-07-29T05:18:37;21.00;19.50
7325;DHT22;3703;48.016;7.802;2023-07-29T05:21:05;21.00;22.10
7325;DHT22;3703;48.016;7.802;2023-07-29T05:23:34;21.00;22.60
7325;DHT22;3703;48.016;7.802;2023-07-29T05:26:01;21.00;21.70
7325;DHT22;3703;48.016;7.802;2023-07-29T05:28:28;21.00;19.60
7325;DHT22;3703;48.016;7.802;2023-07-29T05:30:55;21.00;20.40
7325;DHT22;3703;48.016;7.802;2023-07-29T05:33:22;21.00;22.40
7325;DHT22;3703;48.016;7.802;2023-07-29T05:35:50;21.00;23.90
7325;DHT22;3703;48.016;7.802;2023-07-29T05:38:18;21.20;27.30
7325;DHT22;3703;48.016;7.802;2023-07-29T05:40:48;21.20;24.00
7325;DHT22;3703;48.016;7.802;2023-07-29T05:43:15;21.10;24.60
7325;DHT22;3703;48.016;7.802;2023-07-29T05:45:42;21.10;26.30
7325;DHT22;3703;48.016;7.802;2023-07-29T05:48:09;21.10;26.90
7325;DHT22;3703;48.016;7.802;2023-07-29T05:50:36;21.20;24.00
7325;DHT22;3703;48.016;7.802;2023-07-29T05:53:04;21.20;21.30
7325;DHT22;3703;48.016;7.802;2023-07-29T05:55:32;21.30;23.80
7325;DHT22;3703;48.016;7.802;2023-07-29T05:57:59;21.40;22.50
7325;DHT22;3703;48.016;7.802;2023-07-29T06:00:26;21.40;18.70
7325;DHT22;3703;48.016;7.802;2023-07-29T06:02:53;21.50;7.90
7325;DHT22;3703;48.016;7.802;2023-07-29T06:05:21;21.50;9.20
7325;DHT22;3703;48.016;7.802;2023-07-29T06:07:48;21.60;9.30
7325;DHT22;3703;48.016;7.802;2023-07-29T06:10:16;21.70;3.80
7325;DHT22;3703;48.016;7.802;2023-07-29T06:12:44;21.70;6.30
7325;DHT22;3703;48.016;7.802;2023-07-29T06:15:11;21.90;1.00
7325;DHT22;3703;48.016;7.802;2023-07-29T06:17:39;21.90;1.00
7325;DHT22;3703;48.016;7.802;2023-07-29T06:20:07;21.90;1.00
7325;DHT22;3703;48.016;7.802;2023-07-29T06:22:35;21.90;1.00
7325;DHT22;3703;48.016;7.802;2023-07-29T06:25:03;21.90;1.00
7325;DHT22;3703;48.016;7.802;2023-07-29T06:27:32;21.90;1.00
7325;DHT22;3703;48.016;7.802;2023-07-29T06:29:59;21.90;1.00
7325;DHT22;3703;48.016;7.802;2023-07-29T06:32:26;21.90;1.00
7325;DHT22;3703;48.016;7.802;2023-07-29T06:34:53;22.00;1.00
7325;DHT22;3703;48.016;7.802;2023-07-29T06:37:20;21.80;2.60
7325;DHT22;3703;48.016;7.802;2023-07-29T06:39:48;22.30;1.00
7325;DHT22;3703;48.016;7.802;2023-07-29T06:42:15;22.50;1.00
7325;DHT22;3703;48.016;7.802;2023-07-29T06:44:43;22.30;3.00
7325;DHT22;3703;48.016;7.802;2023-07-29T06:47:11;22.70;1.00
7325;DHT22;3703;48.016;7.802;2023-07-29T06:49:38;22.60;1.00
7325;DHT22;3703;48.016;7.802;2023-07-29T06:52:06;22.50;13.30
7325;DHT22;3703;48.016;7.802;2023-07-29T06:54:33;21.40;40.60
7325;DHT22;3703;48.016;7.802;2023-07-29T06:57:00;21.30;37.90
7325;DHT22;3703;48.016;7.802;2023-07-29T06:59:27;21.30;40.30
7325;DHT22;3703;48.016;7.802;2023-07-29T07:01:56;21.20;40.90
7325;DHT22;3703;48.016;7.802;2023-07-29T07:04:23;21.10;48.80
7325;DHT22;3703;48.016;7.802;2023-07-29T07:06:50;21.00;51.90
7325;DHT22;3703;48.016;7.802;2023-07-29T07:09:17;21.00;57.40
7325;DHT22;3703;48.016;7.802;2023-07-29T07:11:44;21.30;54.80
7325;DHT22;3703;48.016;7.802;2023-07-29T07:14:11;21.30;49.60
7325;DHT22;3703;48.016;7.802;2023-07-29T07:16:38;21.50;48.10
7325;DHT22;3703;48.016;7.802;2023-07-29T07:19:26;21.40;53.00
7325;DHT22;3703;48.016;7.802;2023-07-29T07:22:12;21.30;61.40
7325;DHT22;3703;48.016;7.802;2023-07-29T07:24:57;21.20;66.90
7325;DHT22;3703;48.016;7.802;2023-07-29T07:27:43;21.20;72.40
7325;DHT22;3703;48.016;7.802;2023-07-29T07:30:29;21.40;72.20
7325;DHT22;3703;48.016;7.802;2023-07-29T07:32:56;21.50;72.50
7325;DHT22;3703;48.016;7.802;2023-07-29T07:35:25;21.70;58.70
7325;DHT22;3703;48.016;7.802;2023-07-29T07:37:52;21.80;51.50
7325;DHT22;3703;48.016;7.802;2023-07-29T07:40:19;22.00;37.30
7325;DHT22;3703;48.016;7.802;2023-07-29T07:42:46;22.10;38.80
7325;DHT22;3703;48.016;7.802;2023-07-29T07:45:13;22.30;30.00
7325;DHT22;3703;48.016;7.802;2023-07-29T07:47:40;22.40;25.30
7325;DHT22;3703;48.016;7.802;2023-07-29T07:50:07;22.40;13.50
7325;DHT22;3703;48.016;7.802;2023-07-29T07:52:36;22.50;32.10
7325;DHT22;3703;48.016;7.802;2023-07-29T07:55:04;22.60;20.00
7325;DHT22;3703;48.016;7.802;2023-07-29T07:57:32;22.70;17.50
7325;DHT22;3703;48.016;7.802;2023-07-29T07:59:59;22.90;20.10
7325;DHT22;3703;48.016;7.802;2023-07-29T08:02:26;23.00;10.50
7325;DHT22;3703;48.016;7.802;2023-07-29T08:04:53;23.20;1.00
7325;DHT22;3703;48.016;7.802;2023-07-29T08:07:20;23.40;1.00
7325;DHT22;3703;48.016;7.802;2023-07-29T08:09:48;23.60;1.00
7325;DHT22;3703;48.016;7.802;2023-07-29T08:12:16;23.80;1.00
7325;DHT22;3703;48.016;7.802;2023-07-29T08:14:43;23.70;1.00
7325;DHT22;3703;48.016;7.802;2023-07-29T08:17:11;23.70;1.00
7325;DHT22;3703;48.016;7.802;2023-07-29T08:19:38;23.80;1.00
7325;DHT22;3703;48.016;7.802;2023-07-29T08:22:05;23.70;1.00
7325;DHT22;3703;48.016;7.802;2023-07-29T08:24:32;23.50;1.00
7325;DHT22;3703;48.016;7.802;2023-07-29T08:27:01;23.40;1.00
7325;DHT22;3703;48.016;7.802;2023-07-29T08:29:28;23.30;1.00
7325;DHT22;3703;48.016;7.802;2023-07-29T08:31:55;23.30;1.00
7325;DHT22;3703;48.016;7.802;2023-07-29T08:34:22;23.30;1.00
7325;DHT22;3703;48.016;7.802;2023-07-29T08:36:49;23.40;1.00
7325;DHT22;3703;48.016;7.802;2023-07-29T08:39:16;23.40;1.00
7325;DHT22;3703;48.016;7.802;2023-07-29T08:41:49;23.50;1.00
7325;DHT22;3703;48.016;7.802;2023-07-29T08:44:22;23.60;1.00
7325;DHT22;3703;48.016;7.802;2023-07-29T08:46:50;23.70;1.00
7325;DHT22;3703;48.016;7.802;2023-07-29T08:49:37;23.80;1.00
7325;DHT22;3703;48.016;7.802;2023-07-29T08:52:24;23.90;1.00
7325;DHT22;3703;48.016;7.802;2023-07-29T08:55:10;23.90;1.00
7325;DHT22;3703;48.016;7.802;2023-07-29T08:57:57;23.90;1.00
7325;DHT22;3703;48.016;7.802;2023-07-29T09:00:26;24.00;1.00
7325;DHT22;3703;48.016;7.802;2023-07-29T09:02:54;23.90;1.00
7325;DHT22;3703;48.016;7.802;2023-07-29T09:05:23;24.00;1.00
7325;DHT22;3703;48.016;7.802;2023-07-29T09:07:51;23.90;1.00
7325;DHT22;3703;48.016;7.802;2023-07-29T09:10:21;23.80;1.00
7325;DHT22;3703;48.016;7.802;2023-07-29T09:12:49;23.80;1.00
7325;DHT22;3703;48.016;7.802;2023-07-29T09:15:28;23.90;1.00
7325;DHT22;3703;48.016;7.802;2023-07-29T09:17:56;23.80;1.00
7325;DHT22;3703;48.016;7.802;2023-07-29T09:20:24;23.80;1.00
7325;DHT22;3703;48.016;7.802;2023-07-29T09:22:54;23.80;1.00
7325;DHT22;3703;48.016;7.802;2023-07-29T09:25:25;23.80;1.00
7325;DHT22;3703;48.016;7.802;2023-07-29T09:27:52;24.00;1.00
7325;DHT22;3703;48.016;7.802;2023-07-29T09:30:19;24.10;1.00
7325;DHT22;3703;48.016;7.802;2023-07-29T09:32:54;24.00;1.00
7325;DHT22;3703;48.016;7.802;2023-07-29T09:35:22;24.10;1.00
7325;DHT22;3703;48.016;7.802;2023-07-29T09:37:50;24.10;1.00
7325;DHT22;3703;48.016;7.802;2023-07-29T09:40:19;24.10;1.00
7325;DHT22;3703;48.016;7.802;2023-07-29T09:42:49;24.10;1.00
7325;DHT22;3703;48.016;7.802;2023-07-29T09:45:22;24.30;1.00
7325;DHT22;3703;48.016;7.802;2023-07-29T09:47:52;24.40;1.00
7325;DHT22;3703;48.016;7.802;2023-07-29T09:50:23;24.40;1.00
7325;DHT22;3703;48.016;7.802;2023-07-29T09:52:51;24.50;1.00
7325;DHT22;3703;48.016;7.802;2023-07-29T09:55:21;24.50;1.00
7325;DHT22;3703;48.016;7.802;2023-07-29T09:57:53;24.70;1.00
7325;DHT22;3703;48.016;7.802;2023-07-29T10:00:23;24.90;1.00
7325;DHT22;3703;48.016;7.802;2023-07-29T10:02:52;24.80;1.00
7325;DHT22;3703;48.016;7.802;2023-07-29T10:05:21;24.80;1.00
7325;DHT22;3703;48.016;7.802;2023-07-29T10:07:48;24.70;1.00
7325;DHT22;3703;48.016;7.802;2023-07-29T10:10:35;24.70;1.00
7325;DHT22;3703;48.016;7.802;2023-07-29T10:13:03;24.60;1.00
7325;DHT22;3703;48.016;7.802;2023-07-29T10:15:50;24.40;1.00
7325;DHT22;3703;48.016;7.802;2023-07-29T10:18:38;24.30;1.00
7325;DHT22;3703;48.016;7.802;2023-07-29T10:21:06;24.20;1.00
7325;DHT22;3703;48.016;7.802;2023-07-29T10:23:38;24.50;1.00
7325;DHT22;3703;48.016;7.802;2023-07-29T10:26:10;24.30;1.00
7325;DHT22;3703;48.016;7.802;2023-07-29T10:28:41;24.50;1.00
7325;DHT22;3703;48.016;7.802;2023-07-29T10:31:31;24.50;1.00
7325;DHT22;3703;48.016;7.802;2023-07-29T10:34:07;24.40;1.00
7325;DHT22;3703;48.016;7.802;2023-07-29T10:36:34;24.50;1.00
7325;DHT22;3703;48.016;7.802;2023-07-29T10:39:02;24.60;1.00
7325;DHT22;3703;48.016;7.802;2023-07-29T10:41:56;24.50;1.00
7325;DHT22;3703;48.016;7.802;2023-07-29T10:44:50;24.80;1.00
7325;DHT22;3703;48.016;7.802;2023-07-29T10:47:20;25.30;1.00
7325;DHT22;3703;48.016;7.802;2023-07-29T10:49:52;25.10;1.00
7325;DHT22;3703;48.016;7.802;2023-07-29T10:52:40;25.10;1.00
7325;DHT22;3703;48.016;7.802;2023-07-29T10:55:24;25.30;1.00
7325;DHT22;3703;48.016;7.802;2023-07-29T10:57:54;25.10;99.90
7325;DHT22;3703;48.016;7.802;2023-07-29T11:00:31;25.10;1.00
7325;DHT22;3703;48.016;7.802;2023-07-29T11:03:01;25.20;1.00
7325;DHT22;3703;48.016;7.802;2023-07-29T11:05:49;25.00;99.90
7325;DHT22;3703;48.016;7.802;2023-07-29T11:08:22;25.10;99.90
7325;DHT22;3703;48.016;7.802;2023-07-29T11:11:03;25.20;1.00
7325;DHT22;3703;48.016;7.802;2023-07-29T11:13:32;25.10;99.90
7325;DHT22;3703;48.016;7.802;2023-07-29T11:16:00;25.10;99.90
7325;DHT22;3703;48.016;7.802;2023-07-29T11:18:29;25.20;99.90
7325;DHT22;3703;48.016;7.802;2023-07-29T11:20:59;25.30;99.90
7325;DHT22;3703;48.016;7.802;2023-07-29T11:23:31;25.40;99.90
7325;DHT22;3703;48.016;7.802;2023-07-29T11:25:59;25.50;99.90
7325;DHT22;3703;48.016;7.802;2023-07-29T11:28:27;25.40;99.90
7325;DHT22;3703;48.016;7.802;2023-07-29T11:30:55;25.70;99.90
7325;DHT22;3703;48.016;7.802;2023-07-29T11:33:24;25.60;1.00
7325;DHT22;3703;48.016;7.802;2023-07-29T11:35:53;25.40;99.90
7325;DHT22;3703;48.016;7.802;2023-07-29T11:38:22;25.40;99.90
7325;DHT22;3703;48.016;7.802;2023-07-29T11:40:58;25.60;99.90
7325;DHT22;3703;48.016;7.802;2023-07-29T11:43:26;25.80;99.90
7325;DHT22;3703;48.016;7.802;2023-07-29T11:45:53;25.70;1.00
7325;DHT22;3703;48.016;7.802;2023-07-29T11:48:28;25.80;1.00
7325;DHT22;3703;48.016;7.802;2023-07-29T11:50:55;25.90;1.00
7325;DHT22;3703;48.016;7.802;2023-07-29T11:53:26;25.80;99.90
7325;DHT22;3703;48.016;7.802;2023-07-29T11:55:54;25.60;99.90
7325;DHT22;3703;48.016;7.802;2023-07-29T11:58:22;25.60;1.00
7325;DHT22;3703;48.016;7.802;2023-07-29T12:00:49;25.70;99.90
7325;DHT22;3703;48.016;7.802;2023-07-29T12:03:16;25.70;99.90
7325;DHT22;3703;48.016;7.802;2023-07-29T12:05:44;25.80;99.90
7325;DHT22;3703;48.016;7.802;2023-07-29T12:08:11;25.90;99.90
7325;DHT22;3703;48.016;7.802;2023-07-29T12:10:40;26.20;99.90
7325;DHT22;3703;48.016;7.802;2023-07-29T12:13:08;26.00;68.20
7325;DHT22;3703;48.016;7.802;2023-07-29T12:15:38;26.00;99.90
7325;DHT22;3703;48.016;7.802;2023-07-29T12:18:06;26.20;99.90
7325;DHT22;3703;48.016;7.802;2023-07-29T12:20:34;26.00;52.50
7325;DHT22;3703;48.016;7.802;2023-07-29T12:23:01;25.80;99.90
7325;DHT22;3703;48.016;7.802;2023-07-29T12:25:28;25.90;1.00
7325;DHT22;3703;48.016;7.802;2023-07-29T12:28:02;26.00;1.00
7325;DHT22;3703;48.016;7.802;2023-07-29T12:30:30;26.00;99.90
7325;DHT22;3703;48.016;7.802;2023-07-29T12:32:57;25.90;1.00
7325;DHT22;3703;48.016;7.802;2023-07-29T12:35:34;25.90;99.90
7325;DHT22;3703;48.016;7.802;2023-07-29T12:38:02;25.90;1.00
7325;DHT22;3703;48.016;7.802;2023-07-29T12:40:30;26.00;1.00
7325;DHT22;3703;48.016;7.802;2023-07-29T12:42:59;25.90;1.00
7325;DHT22;3703;48.016;7.802;2023-07-29T12:45:26;25.80;99.90
7325;DHT22;3703;48.016;7.802;2023-07-29T12:47:54;25.80;1.00
7325;DHT22;3703;48.016;7.802;2023-07-29T12:50:22;25.70;1.00
7325;DHT22;3703;48.016;7.802;2023-07-29T12:52:49;25.70;1.00
7325;DHT22;3703;48.016;7.802;2023-07-29T12:55:16;25.80;99.90
7325;DHT22;3703;48.016;7.802;2023-07-29T12:57:43;25.90;1.00
7325;DHT22;3703;48.016;7.802;2023-07-29T13:00:12;25.80;1.00
7325;DHT22;3703;48.016;7.802;2023-07-29T13:02:40;25.80;1.00
7325;DHT22;3703;48.016;7.802;2023-07-29T13:05:09;25.60;1.00
7325;DHT22;3703;48.016;7.802;2023-07-29T13:07:37;25.50;1.00
7325;DHT22;3703;48.016;7.802;2023-07-29T13:10:06;25.60;1.00
7325;DHT22;3703;48.016;7.802;2023-07-29T13:12:35;25.50;1.00
7325;DHT22;3703;48.016;7.802;2023-07-29T13:15:03;25.50;99.90
7325;DHT22;3703;48.016;7.802;2023-07-29T13:17:33;25.50;1.00
7325;DHT22;3703;48.016;7.802;2023-07-29T13:20:00;25.60;1.00
7325;DHT22;3703;48.016;7.802;2023-07-29T13:22:28;25.70;99.90
7325;DHT22;3703;48.016;7.802;2023-07-29T13:24:55;25.70;99.90
7325;DHT22;3703;48.016;7.802;2023-07-29T13:27:22;25.60;99.90
7325;DHT22;3703;48.016;7.802;2023-07-29T13:29:50;25.50;99.90
7325;DHT22;3703;48.016;7.802;2023-07-29T13:32:18;25.70;1.00
7325;DHT22;3703;48.016;7.802;2023-07-29T13:34:49;25.90;99.90
7325;DHT22;3703;48.016;7.802;2023-07-29T13:37:16;25.60;99.90
7325;DHT22;3703;48.016;7.802;2023-07-29T13:39:45;25.50;87.30
7325;DHT22;3703;48.016;7.802;2023-07-29T13:42:12;25.50;99.90
7325;DHT22;3703;48.016;7.802;2023-07-29T13:44:39;25.30;99.90
7325;DHT22;3703;48.016;7.802;2023-07-29T13:47:06;25.40;1.00
7325;DHT22;3703;48.016;7.802;2023-07-29T13:49:33;25.50;99.90
7325;DHT22;3703;48.016;7.802;2023-07-29T13:52:02;25.30;99.90
7325;DHT22;3703;48.016;7.802;2023-07-29T13:54:29;25.30;99.90
7325;DHT22;3703;48.016;7.802;2023-07-29T13:56:56;25.30;1.00
7325;DHT22;3703;48.016;7.802;2023-07-29T13:59:23;25.30;99.90
7325;DHT22;3703;48.016;7.802;2023-07-29T14:01:50;25.30;99.90
7325;DHT22;3703;48.016;7.802;2023-07-29T14:04:17;25.30;99.90
7325;DHT22;3703;48.016;7.802;2023-07-29T14:06:45;25.40;1.00
7325;DHT22;3703;48.016;7.802;2023-07-29T14:09:13;25.40;1.00
7325;DHT22;3703;48.016;7.802;2023-07-29T14:11:40;25.30;99.90
7325;DHT22;3703;48.016;7.802;2023-07-29T14:14:08;25.40;99.90
7325;DHT22;3703;48.016;7.802;2023-07-29T14:16:36;25.50;99.90
7325;DHT22;3703;48.016;7.802;2023-07-29T14:19:03;25.50;99.90
7325;DHT22;3703;48.016;7.802;2023-07-29T14:21:30;25.50;99.90
7325;DHT22;3703;48.016;7.802;2023-07-29T14:23:57;25.40;1.00
7325;DHT22;3703;48.016;7.802;2023-07-29T14:26:26;25.50;1.00
7325;DHT22;3703;48.016;7.802;2023-07-29T14:28:53;25.40;1.00
7325;DHT22;3703;48.016;7.802;2023-07-29T14:31:23;24.90;99.90
7325;DHT22;3703;48.016;7.802;2023-07-29T14:33:50;24.50;99.90
7325;DHT22;3703;48.016;7.802;2023-07-29T14:36:17;23.20;1.00
7325;DHT22;3703;48.016;7.802;2023-07-29T14:38:44;24.00;1.00
7325;DHT22;3703;48.016;7.802;2023-07-29T14:41:12;24.00;1.00
7325;DHT22;3703;48.016;7.802;2023-07-29T14:43:41;25.10;1.00
7325;DHT22;3703;48.016;7.802;2023-07-29T14:46:08;23.70;1.00
7325;DHT22;3703;48.016;7.802;2023-07-29T14:48:35;24.10;1.00
7325;DHT22;3703;48.016;7.802;2023-07-29T14:51:02;23.80;1.00
7325;DHT22;3703;48.016;7.802;2023-07-29T14:53:30;23.80;1.00
7325;DHT22;3703;48.016;7.802;2023-07-29T14:55:58;23.60;1.00
7325;DHT22;3703;48.016;7.802;2023-07-29T14:58:25;23.80;1.00
7325;DHT22;3703;48.016;7.802;2023-07-29T15:00:53;23.90;1.00
7325;DHT22;3703;48.016;7.802;2023-07-29T15:03:20;23.90;1.00
7325;DHT22;3703;48.016;7.802;2023-07-29T15:05:47;23.80;1.00
7325;DHT22;3703;48.016;7.802;2023-07-29T15:08:15;23.70;1.00
7325;DHT22;3703;48.016;7.802;2023-07-29T15:10:45;23.60;1.00
7325;DHT22;3703;48.016;7.802;2023-07-29T15:13:12;23.80;1.00
7325;DHT22;3703;48.016;7.802;2023-07-29T15:15:40;23.70;1.00
7325;DHT22;3703;48.016;7.802;2023-07-29T15:18:10;23.50;1.00
7325;DHT22;3703;48.016;7.802;2023-07-29T15:20:37;23.40;1.00
7325;DHT22;3703;48.016;7.802;2023-07-29T15:23:04;23.50;1.00
7325;DHT22;3703;48.016;7.802;2023-07-29T15:25:31;23.50;1.00
7325;DHT22;3703;48.016;7.802;2023-07-29T15:27:58;23.40;1.00
7325;DHT22;3703;48.016;7.802;2023-07-29T15:30:25;23.40;1.00
7325;DHT22;3703;48.016;7.802;2023-07-29T15:32:52;23.30;1.00
7325;DHT22;3703;48.016;7.802;2023-07-29T15:35:22;23.30;1.00
7325;DHT22;3703;48.016;7.802;2023-07-29T15:37:50;23.50;1.00
7325;DHT22;3703;48.016;7.802;2023-07-29T15:40:17;23.10;1.00
7325;DHT22;3703;48.016;7.802;2023-07-29T15:42:44;23.90;1.00
7325;DHT22;3703;48.016;7.802;2023-07-29T15:45:12;23.90;1.00
7325;DHT22;3703;48.016;7.802;2023-07-29T15:47:39;24.10;1.00
7325;DHT22;3703;48.016;7.802;2023-07-29T15:50:06;23.90;1.00
7325;DHT22;3703;48.016;7.802;2023-07-29T15:52:35;23.80;1.00
7325;DHT22;3703;48.016;7.802;2023-07-29T15:55:08;23.90;1.00
7325;DHT22;3703;48.016;7.802;2023-07-29T15:57:35;23.70;1.00
7325;DHT22;3703;48.016;7.802;2023-07-29T16:00:03;23.70;1.00
7325;DHT22;3703;48.016;7.802;2023-07-29T16:02:31;23.60;1.00
7325;DHT22;3703;48.016;7.802;2023-07-29T16:04:58;23.40;1.00
7325;DHT22;3703;48.016;7.802;2023-07-29T16:07:25;23.30;1.00
7325;DHT22;3703;48.016;7.802;2023-07-29T16:09:53;23.40;1.00
7325;DHT22;3703;48.016;7.802;2023-07-29T16:12:20;23.30;1.00
7325;DHT22;3703;48.016;7.802;2023-07-29T16:14:48;23.40;1.00
7325;DHT22;3703;48.016;7.802;2023-07-29T16:17:15;23.30;1.00
7325;DHT22;3703;48.016;7.802;2023-07-29T16:19:54;23.20;1.00
7325;DHT22;3703;48.016;7.802;2023-07-29T16:22:22;23.10;1.00
7325;DHT22;3703;48.016;7.802;2023-07-29T16:24:49;23.00;1.00
7325;DHT22;3703;48.016;7.802;2023-07-29T16:27:18;23.00;1.00
7325;DHT22;3703;48.016;7.802;2023-07-29T16:29:46;23.10;1.00
7325;DHT22;3703;48.016;7.802;2023-07-29T16:32:14;23.10;1.00
7325;DHT22;3703;48.016;7.802;2023-07-29T16:34:41;23.10;1.00